sensor_id;sensor_type;location;lat;lon;timestamp;P1;durP1;ratioP1;P2;durP2;ratioP2
30327;SDS011;17133;52.418;13.398;2022-10-04T00:01:26;15.93;;;4.72;;
30327;SDS011;17133;52.418;13.398;2022-10-04T00:06:36;17.40;;;4.53;;
30327;SDS011;17133;52.418;13.398;2022-10-04T00:09:14;14.38;;;3.72;;
30327;SDS011;17133;52.418;13.398;2022-10-04T00:11:43;14.43;;;4.60;;
30327;SDS011;17133;52.418;13.398;2022-10-04T00:14:15;11.40;;;4.40;;
30327;SDS011;17133;52.418;13.398;2022-10-04T00:16:48;16.08;;;4.65;;
30327;SDS011;17133;52.418;13.398;2022-10-04T00:22:08;9.40;;;3.65;;
30327;SDS011;17133;52.418;13.398;2022-10-04T00:24:36;17.45;;;4.55;;
30327;SDS011;17133;52.418;13.398;2022-10-04T00:27:23;15.88;;;5.60;;
30327;SDS011;17133;52.418;13.398;2022-10-04T00:37:55;16.40;;;5.05;;
30327;SDS011;17133;52.418;13.398;2022-10-04T00:40:31;19.60;;;5.05;;
30327;SDS011;17133;52.418;13.398;2022-10-04T00:43:01;18.00;;;5.18;;
30327;SDS011;17133;52.418;13.398;2022-10-04T00:45:38;13.82;;;4.65;;
30327;SDS011;17133;52.418;13.398;2022-10-04T00:53:44;15.88;;;4.85;;
30327;SDS011;17133;52.418;13.398;2022-10-04T00:56:40;19.20;;;5.47;;
30327;SDS011;17133;52.418;13.398;2022-10-04T00:59:16;16.15;;;5.45;;
30327;SDS011;17133;52.418;13.398;2022-10-04T01:01:58;20.00;;;4.95;;
30327;SDS011;17133;52.418;13.398;2022-10-04T01:07:46;14.10;;;5.57;;
30327;SDS011;17133;52.418;13.398;2022-10-04T01:12:48;17.40;;;4.90;;
30327;SDS011;17133;52.418;13.398;2022-10-04T01:15:25;17.70;;;4.88;;
30327;SDS011;17133;52.418;13.398;2022-10-04T01:18:18;18.45;;;4.53;;
30327;SDS011;17133;52.418;13.398;2022-10-04T01:20:57;18.75;;;4.90;;
30327;SDS011;17133;52.418;13.398;2022-10-04T01:23:40;19.10;;;5.22;;
30327;SDS011;17133;52.418;13.398;2022-10-04T01:26:35;15.27;;;4.38;;
30327;SDS011;17133;52.418;13.398;2022-10-04T01:29:00;15.00;;;4.57;;
30327;SDS011;17133;52.418;13.398;2022-10-04T01:31:36;18.80;;;4.78;;
30327;SDS011;17133;52.418;13.398;2022-10-04T01:34:22;19.15;;;5.07;;
30327;SDS011;17133;52.418;13.398;2022-10-04T01:36:51;21.50;;;4.60;;
30327;SDS011;17133;52.418;13.398;2022-10-04T01:39:18;20.20;;;4.65;;
30327;SDS011;17133;52.418;13.398;2022-10-04T01:44:17;16.20;;;4.72;;
30327;SDS011;17133;52.418;13.398;2022-10-04T01:46:51;20.85;;;5.22;;
30327;SDS011;17133;52.418;13.398;2022-10-04T01:49:22;11.40;;;3.78;;
30327;SDS011;17133;52.418;13.398;2022-10-04T01:51:56;11.32;;;4.25;;
30327;SDS011;17133;52.418;13.398;2022-10-04T01:54:38;11.00;;;4.18;;
30327;SDS011;17133;52.418;13.398;2022-10-04T01:59:55;16.42;;;5.22;;
30327;SDS011;17133;52.418;13.398;2022-10-04T02:02:35;19.35;;;4.93;;
30327;SDS011;17133;52.418;13.398;2022-10-04T02:05:15;16.25;;;4.22;;
30327;SDS011;17133;52.418;13.398;2022-10-04T02:07:45;12.45;;;4.20;;
30327;SDS011;17133;52.418;13.398;2022-10-04T02:10:17;19.50;;;4.78;;
30327;SDS011;17133;52.418;13.398;2022-10-04T02:12:46;16.35;;;4.03;;
30327;SDS011;17133;52.418;13.398;2022-10-04T02:15:14;10.05;;;3.88;;
30327;SDS011;17133;52.418;13.398;2022-10-04T02:17:42;13.20;;;4.43;;
30327;SDS011;17133;52.418;13.398;2022-10-04T02:20:15;15.50;;;4.78;;
30327;SDS011;17133;52.418;13.398;2022-10-04T02:22:45;21.42;;;5.00;;
30327;SDS011;17133;52.418;13.398;2022-10-04T02:25:15;14.18;;;4.07;;
30327;SDS011;17133;52.418;13.398;2022-10-04T02:27:43;15.43;;;4.25;;
30327;SDS011;17133;52.418;13.398;2022-10-04T02:30:10;16.17;;;3.97;;
30327;SDS011;17133;52.418;13.398;2022-10-04T02:32:37;14.70;;;3.95;;
30327;SDS011;17133;52.418;13.398;2022-10-04T02:35:28;14.55;;;4.40;;
30327;SDS011;17133;52.418;13.398;2022-10-04T02:38:11;17.35;;;3.72;;
30327;SDS011;17133;52.418;13.398;2022-10-04T02:41:01;14.25;;;4.10;;
30327;SDS011;17133;52.418;13.398;2022-10-04T02:43:44;16.15;;;4.15;;
30327;SDS011;17133;52.418;13.398;2022-10-04T02:46:12;16.40;;;4.57;;
30327;SDS011;17133;52.418;13.398;2022-10-04T02:48:48;13.82;;;5.28;;
30327;SDS011;17133;52.418;13.398;2022-10-04T02:54:04;10.95;;;3.78;;
30327;SDS011;17133;52.418;13.398;2022-10-04T02:56:38;13.43;;;4.50;;
30327;SDS011;17133;52.418;13.398;2022-10-04T02:59:04;14.45;;;4.45;;
30327;SDS011;17133;52.418;13.398;2022-10-04T03:01:48;16.45;;;5.00;;
30327;SDS011;17133;52.418;13.398;2022-10-04T03:04:16;16.60;;;3.85;;
30327;SDS011;17133;52.418;13.398;2022-10-04T03:06:47;9.55;;;3.60;;
30327;SDS011;17133;52.418;13.398;2022-10-04T03:09:14;17.80;;;4.55;;
30327;SDS011;17133;52.418;13.398;2022-10-04T03:11:41;15.98;;;3.75;;
30327;SDS011;17133;52.418;13.398;2022-10-04T03:14:12;9.23;;;3.20;;
30327;SDS011;17133;52.418;13.398;2022-10-04T03:16:50;19.55;;;4.50;;
30327;SDS011;17133;52.418;13.398;2022-10-04T03:19:18;15.32;;;4.07;;
30327;SDS011;17133;52.418;13.398;2022-10-04T03:21:48;8.05;;;3.30;;
30327;SDS011;17133;52.418;13.398;2022-10-04T03:24:59;15.38;;;3.45;;
30327;SDS011;17133;52.418;13.398;2022-10-04T03:27:14;12.68;;;3.72;;
30327;SDS011;17133;52.418;13.398;2022-10-04T03:29:46;14.05;;;3.97;;
30327;SDS011;17133;52.418;13.398;2022-10-04T03:32:14;11.02;;;3.58;;
30327;SDS011;17133;52.418;13.398;2022-10-04T03:34:43;13.18;;;3.78;;
30327;SDS011;17133;52.418;13.398;2022-10-04T03:37:16;12.00;;;4.38;;
30327;SDS011;17133;52.418;13.398;2022-10-04T03:39:45;17.23;;;3.97;;
30327;SDS011;17133;52.418;13.398;2022-10-04T03:42:20;10.68;;;4.20;;
30327;SDS011;17133;52.418;13.398;2022-10-04T03:44:49;13.38;;;4.30;;
30327;SDS011;17133;52.418;13.398;2022-10-04T03:47:18;12.30;;;4.25;;
30327;SDS011;17133;52.418;13.398;2022-10-04T03:50:05;10.48;;;3.85;;
30327;SDS011;17133;52.418;13.398;2022-10-04T03:52:46;14.27;;;4.40;;
30327;SDS011;17133;52.418;13.398;2022-10-04T03:55:15;10.07;;;3.70;;
30327;SDS011;17133;52.418;13.398;2022-10-04T03:57:42;13.68;;;4.57;;
30327;SDS011;17133;52.418;13.398;2022-10-04T04:00:08;11.15;;;3.80;;
30327;SDS011;17133;52.418;13.398;2022-10-04T04:02:43;10.95;;;4.05;;
30327;SDS011;17133;52.418;13.398;2022-10-04T04:07:43;11.87;;;3.80;;
30327;SDS011;17133;52.418;13.398;2022-10-04T04:10:16;18.70;;;5.15;;
30327;SDS011;17133;52.418;13.398;2022-10-04T04:15:46;15.15;;;4.75;;
30327;SDS011;17133;52.418;13.398;2022-10-04T04:18:20;17.33;;;3.60;;
30327;SDS011;17133;52.418;13.398;2022-10-04T04:20:48;16.58;;;3.80;;
30327;SDS011;17133;52.418;13.398;2022-10-04T04:23:22;12.45;;;4.90;;
30327;SDS011;17133;52.418;13.398;2022-10-04T04:25:57;14.48;;;4.10;;
30327;SDS011;17133;52.418;13.398;2022-10-04T04:28:41;11.57;;;4.10;;
30327;SDS011;17133;52.418;13.398;2022-10-04T04:31:22;14.65;;;3.67;;
30327;SDS011;17133;52.418;13.398;2022-10-04T04:33:55;16.70;;;4.22;;
30327;SDS011;17133;52.418;13.398;2022-10-04T04:36:29;11.60;;;3.53;;
30327;SDS011;17133;52.418;13.398;2022-10-04T04:39:06;17.48;;;4.20;;
30327;SDS011;17133;52.418;13.398;2022-10-04T04:42:46;16.55;;;4.13;;
30327;SDS011;17133;52.418;13.398;2022-10-04T04:44:51;13.65;;;3.53;;
30327;SDS011;17133;52.418;13.398;2022-10-04T04:47:38;12.95;;;3.88;;
30327;SDS011;17133;52.418;13.398;2022-10-04T04:53:04;15.25;;;3.85;;
30327;SDS011;17133;52.418;13.398;2022-10-04T04:55:59;11.38;;;3.72;;
30327;SDS011;17133;52.418;13.398;2022-10-04T04:58:31;5.47;;;3.05;;
30327;SDS011;17133;52.418;13.398;2022-10-04T05:01:08;12.30;;;3.90;;
30327;SDS011;17133;52.418;13.398;2022-10-04T05:06:36;11.13;;;3.92;;
30327;SDS011;17133;52.418;13.398;2022-10-04T05:09:23;14.88;;;4.22;;
30327;SDS011;17133;52.418;13.398;2022-10-04T05:11:55;13.38;;;4.57;;
30327;SDS011;17133;52.418;13.398;2022-10-04T05:14:32;12.63;;;3.50;;
30327;SDS011;17133;52.418;13.398;2022-10-04T05:17:02;8.73;;;3.17;;
30327;SDS011;17133;52.418;13.398;2022-10-04T05:19:31;16.92;;;4.30;;
30327;SDS011;17133;52.418;13.398;2022-10-04T05:22:00;10.43;;;3.67;;
30327;SDS011;17133;52.418;13.398;2022-10-04T05:25:05;11.65;;;3.85;;
30327;SDS011;17133;52.418;13.398;2022-10-04T05:33:00;18.90;;;4.22;;
30327;SDS011;17133;52.418;13.398;2022-10-04T05:35:42;11.90;;;3.47;;
30327;SDS011;17133;52.418;13.398;2022-10-04T05:38:14;10.02;;;3.47;;
30327;SDS011;17133;52.418;13.398;2022-10-04T05:40:49;13.95;;;4.97;;
30327;SDS011;17133;52.418;13.398;2022-10-04T05:43:34;15.35;;;4.47;;
30327;SDS011;17133;52.418;13.398;2022-10-04T05:48:51;13.30;;;4.03;;
30327;SDS011;17133;52.418;13.398;2022-10-04T05:54:13;13.57;;;4.40;;
30327;SDS011;17133;52.418;13.398;2022-10-04T06:01:55;11.73;;;4.05;;
30327;SDS011;17133;52.418;13.398;2022-10-04T06:13:09;7.55;;;3.22;;
30327;SDS011;17133;52.418;13.398;2022-10-04T06:15:57;13.45;;;4.28;;
30327;SDS011;17133;52.418;13.398;2022-10-04T06:21:28;10.73;;;3.90;;
30327;SDS011;17133;52.418;13.398;2022-10-04T06:24:19;14.60;;;3.47;;
30327;SDS011;17133;52.418;13.398;2022-10-04T06:27:14;11.82;;;3.80;;
30327;SDS011;17133;52.418;13.398;2022-10-04T06:30:04;11.75;;;3.80;;
30327;SDS011;17133;52.418;13.398;2022-10-04T06:35:24;9.50;;;3.45;;
30327;SDS011;17133;52.418;13.398;2022-10-04T06:46:41;10.00;;;3.63;;
30327;SDS011;17133;52.418;13.398;2022-10-04T06:49:15;14.27;;;4.05;;
30327;SDS011;17133;52.418;13.398;2022-10-04T06:55:11;9.93;;;3.45;;
30327;SDS011;17133;52.418;13.398;2022-10-04T06:57:48;10.25;;;4.13;;
30327;SDS011;17133;52.418;13.398;2022-10-04T07:03:26;14.30;;;4.95;;
30327;SDS011;17133;52.418;13.398;2022-10-04T07:06:25;12.75;;;4.50;;
30327;SDS011;17133;52.418;13.398;2022-10-04T07:08:55;19.33;;;4.75;;
30327;SDS011;17133;52.418;13.398;2022-10-04T07:11:27;20.35;;;5.35;;
30327;SDS011;17133;52.418;13.398;2022-10-04T07:27:31;16.90;;;5.43;;
30327;SDS011;17133;52.418;13.398;2022-10-04T07:30:00;17.40;;;5.05;;
30327;SDS011;17133;52.418;13.398;2022-10-04T07:32:29;17.63;;;5.45;;
30327;SDS011;17133;52.418;13.398;2022-10-04T07:35:12;15.02;;;5.55;;
30327;SDS011;17133;52.418;13.398;2022-10-04T07:40:37;10.32;;;5.07;;
30327;SDS011;17133;52.418;13.398;2022-10-04T07:43:10;11.57;;;4.72;;
30327;SDS011;17133;52.418;13.398;2022-10-04T07:46:10;14.82;;;5.57;;
30327;SDS011;17133;52.418;13.398;2022-10-04T07:48:45;14.48;;;6.75;;
30327;SDS011;17133;52.418;13.398;2022-10-04T07:53:47;10.05;;;4.93;;
30327;SDS011;17133;52.418;13.398;2022-10-04T08:05:15;11.15;;;5.32;;
30327;SDS011;17133;52.418;13.398;2022-10-04T08:11:01;12.20;;;5.68;;
30327;SDS011;17133;52.418;13.398;2022-10-04T08:16:36;13.10;;;6.07;;
30327;SDS011;17133;52.418;13.398;2022-10-04T08:19:28;16.38;;;6.93;;
30327;SDS011;17133;52.418;13.398;2022-10-04T08:22:10;14.35;;;6.18;;
30327;SDS011;17133;52.418;13.398;2022-10-04T08:28:04;17.90;;;5.82;;
30327;SDS011;17133;52.418;13.398;2022-10-04T08:34:34;13.35;;;6.10;;
30327;SDS011;17133;52.418;13.398;2022-10-04T08:42:37;9.98;;;5.10;;
30327;SDS011;17133;52.418;13.398;2022-10-04T08:57:12;11.02;;;4.68;;
30327;SDS011;17133;52.418;13.398;2022-10-04T09:05:22;6.35;;;4.03;;
30327;SDS011;17133;52.418;13.398;2022-10-04T09:22:16;9.25;;;3.80;;
30327;SDS011;17133;52.418;13.398;2022-10-04T09:24:53;11.23;;;3.10;;
30327;SDS011;17133;52.418;13.398;2022-10-04T09:36:20;7.05;;;2.63;;
30327;SDS011;17133;52.418;13.398;2022-10-04T09:41:51;8.63;;;2.92;;
30327;SDS011;17133;52.418;13.398;2022-10-04T09:56:16;8.93;;;3.72;;
30327;SDS011;17133;52.418;13.398;2022-10-04T10:04:45;10.30;;;3.00;;
30327;SDS011;17133;52.418;13.398;2022-10-04T10:16:23;5.05;;;2.50;;
30327;SDS011;17133;52.418;13.398;2022-10-04T10:24:25;7.05;;;2.47;;
30327;SDS011;17133;52.418;13.398;2022-10-04T10:28:03;7.60;;;2.90;;
30327;SDS011;17133;52.418;13.398;2022-10-04T10:30:23;7.13;;;2.97;;
30327;SDS011;17133;52.418;13.398;2022-10-04T10:36:06;9.57;;;3.55;;
30327;SDS011;17133;52.418;13.398;2022-10-04T11:03:39;8.85;;;2.72;;
30327;SDS011;17133;52.418;13.398;2022-10-04T11:06:14;5.47;;;2.60;;
30327;SDS011;17133;52.418;13.398;2022-10-04T11:17:42;5.68;;;2.50;;
30327;SDS011;17133;52.418;13.398;2022-10-04T11:29:10;9.65;;;2.78;;
30327;SDS011;17133;52.418;13.398;2022-10-04T11:39:19;12.75;;;2.88;;
30327;SDS011;17133;52.418;13.398;2022-10-04T11:42:11;10.57;;;3.25;;
30327;SDS011;17133;52.418;13.398;2022-10-04T11:44:59;6.70;;;2.50;;
30327;SDS011;17133;52.418;13.398;2022-10-04T11:50:07;8.27;;;2.72;;
30327;SDS011;17133;52.418;13.398;2022-10-04T11:58:30;7.03;;;3.03;;
30327;SDS011;17133;52.418;13.398;2022-10-04T12:01:32;7.95;;;2.55;;
30327;SDS011;17133;52.418;13.398;2022-10-04T12:07:06;8.27;;;2.50;;
30327;SDS011;17133;52.418;13.398;2022-10-04T12:27:58;8.70;;;2.75;;
30327;SDS011;17133;52.418;13.398;2022-10-04T12:54:29;8.77;;;1.95;;
30327;SDS011;17133;52.418;13.398;2022-10-04T13:05:35;7.93;;;2.17;;
30327;SDS011;17133;52.418;13.398;2022-10-04T13:22:44;6.38;;;2.03;;
30327;SDS011;17133;52.418;13.398;2022-10-04T13:31:03;7.53;;;1.53;;
30327;SDS011;17133;52.418;13.398;2022-10-04T13:44:35;9.32;;;2.28;;
30327;SDS011;17133;52.418;13.398;2022-10-04T13:47:36;5.93;;;1.70;;
30327;SDS011;17133;52.418;13.398;2022-10-04T13:59:00;7.93;;;2.08;;
30327;SDS011;17133;52.418;13.398;2022-10-04T14:07:49;7.97;;;1.70;;
30327;SDS011;17133;52.418;13.398;2022-10-04T14:19:13;4.93;;;1.23;;
30327;SDS011;17133;52.418;13.398;2022-10-04T14:22:12;5.90;;;1.52;;
30327;SDS011;17133;52.418;13.398;2022-10-04T14:28:07;5.20;;;1.80;;
30327;SDS011;17133;52.418;13.398;2022-10-04T14:50:55;6.85;;;1.38;;
30327;SDS011;17133;52.418;13.398;2022-10-04T14:59:36;5.07;;;1.48;;
30327;SDS011;17133;52.418;13.398;2022-10-04T15:07:37;5.90;;;1.58;;
30327;SDS011;17133;52.418;13.398;2022-10-04T15:12:56;3.47;;;1.40;;
30327;SDS011;17133;52.418;13.398;2022-10-04T15:18:55;4.53;;;1.70;;
30327;SDS011;17133;52.418;13.398;2022-10-04T15:27:20;4.20;;;1.45;;
30327;SDS011;17133;52.418;13.398;2022-10-04T15:36:08;8.48;;;2.13;;
30327;SDS011;17133;52.418;13.398;2022-10-04T15:38:51;5.95;;;1.35;;
30327;SDS011;17133;52.418;13.398;2022-10-04T15:41:31;4.82;;;1.30;;
30327;SDS011;17133;52.418;13.398;2022-10-04T15:52:13;6.20;;;1.50;;
30327;SDS011;17133;52.418;13.398;2022-10-04T16:03:44;3.08;;;1.15;;
30327;SDS011;17133;52.418;13.398;2022-10-04T16:06:27;3.05;;;1.50;;
30327;SDS011;17133;52.418;13.398;2022-10-04T16:22:28;5.90;;;2.08;;
30327;SDS011;17133;52.418;13.398;2022-10-04T16:36:12;5.72;;;1.95;;
30327;SDS011;17133;52.418;13.398;2022-10-04T16:38:44;7.05;;;2.58;;
30327;SDS011;17133;52.418;13.398;2022-10-04T16:41:41;4.18;;;2.22;;
30327;SDS011;17133;52.418;13.398;2022-10-04T16:44:34;5.47;;;2.15;;
30327;SDS011;17133;52.418;13.398;2022-10-04T16:47:32;3.95;;;1.90;;
30327;SDS011;17133;52.418;13.398;2022-10-04T16:55:57;7.18;;;2.10;;
30327;SDS011;17133;52.418;13.398;2022-10-04T16:59:09;4.72;;;1.73;;
30327;SDS011;17133;52.418;13.398;2022-10-04T17:09:52;5.40;;;1.77;;
30327;SDS011;17133;52.418;13.398;2022-10-04T17:12:26;4.78;;;2.13;;
30327;SDS011;17133;52.418;13.398;2022-10-04T17:20:56;5.90;;;2.33;;
30327;SDS011;17133;52.418;13.398;2022-10-04T17:26:13;2.50;;;1.83;;
30327;SDS011;17133;52.418;13.398;2022-10-04T17:31:17;4.65;;;2.60;;
30327;SDS011;17133;52.418;13.398;2022-10-04T17:36:38;5.47;;;2.70;;
30327;SDS011;17133;52.418;13.398;2022-10-04T17:52:10;6.50;;;3.03;;
30327;SDS011;17133;52.418;13.398;2022-10-04T17:54:58;5.00;;;2.80;;
30327;SDS011;17133;52.418;13.398;2022-10-04T18:00:17;7.28;;;4.63;;
30327;SDS011;17133;52.418;13.398;2022-10-04T18:05:14;10.43;;;5.93;;
30327;SDS011;17133;52.418;13.398;2022-10-04T18:13:01;10.15;;;5.85;;
30327;SDS011;17133;52.418;13.398;2022-10-04T18:15:38;7.68;;;4.80;;
30327;SDS011;17133;52.418;13.398;2022-10-04T18:20:35;8.50;;;5.30;;
30327;SDS011;17133;52.418;13.398;2022-10-04T18:23:16;11.40;;;5.72;;
30327;SDS011;17133;52.418;13.398;2022-10-04T18:25:43;8.57;;;5.65;;
30327;SDS011;17133;52.418;13.398;2022-10-04T18:28:13;11.60;;;5.35;;
30327;SDS011;17133;52.418;13.398;2022-10-04T18:33:18;9.93;;;5.85;;
30327;SDS011;17133;52.418;13.398;2022-10-04T18:35:51;9.05;;;5.25;;
30327;SDS011;17133;52.418;13.398;2022-10-04T18:38:28;7.18;;;4.93;;
30327;SDS011;17133;52.418;13.398;2022-10-04T18:41:02;6.80;;;4.70;;
30327;SDS011;17133;52.418;13.398;2022-10-04T18:46:15;8.02;;;4.63;;
30327;SDS011;17133;52.418;13.398;2022-10-04T18:48:50;8.90;;;5.28;;
30327;SDS011;17133;52.418;13.398;2022-10-04T18:51:32;10.60;;;5.20;;
30327;SDS011;17133;52.418;13.398;2022-10-04T18:56:30;9.30;;;5.47;;
30327;SDS011;17133;52.418;13.398;2022-10-04T19:04:34;8.82;;;5.47;;
30327;SDS011;17133;52.418;13.398;2022-10-04T19:07:24;8.60;;;5.30;;
30327;SDS011;17133;52.418;13.398;2022-10-04T19:12:35;8.32;;;4.70;;
30327;SDS011;17133;52.418;13.398;2022-10-04T19:17:33;8.77;;;5.20;;
30327;SDS011;17133;52.418;13.398;2022-10-04T19:20:01;8.88;;;5.80;;
30327;SDS011;17133;52.418;13.398;2022-10-04T19:25:23;7.97;;;4.35;;
30327;SDS011;17133;52.418;13.398;2022-10-04T19:28:07;6.55;;;4.38;;
30327;SDS011;17133;52.418;13.398;2022-10-04T19:33:18;7.88;;;5.15;;
30327;SDS011;17133;52.418;13.398;2022-10-04T19:38:26;7.43;;;5.03;;
30327;SDS011;17133;52.418;13.398;2022-10-04T19:46:16;7.05;;;4.60;;
30327;SDS011;17133;52.418;13.398;2022-10-04T19:48:48;7.40;;;4.40;;
30327;SDS011;17133;52.418;13.398;2022-10-04T19:51:27;7.28;;;4.82;;
30327;SDS011;17133;52.418;13.398;2022-10-04T19:53:56;6.55;;;4.70;;
30327;SDS011;17133;52.418;13.398;2022-10-04T19:56:26;10.05;;;4.38;;
30327;SDS011;17133;52.418;13.398;2022-10-04T19:59:00;9.57;;;4.87;;
30327;SDS011;17133;52.418;13.398;2022-10-04T20:01:29;8.50;;;5.20;;
30327;SDS011;17133;52.418;13.398;2022-10-04T20:03:55;7.50;;;4.97;;
30327;SDS011;17133;52.418;13.398;2022-10-04T20:06:46;9.75;;;5.03;;
30327;SDS011;17133;52.418;13.398;2022-10-04T20:11:48;7.13;;;4.75;;
30327;SDS011;17133;52.418;13.398;2022-10-04T20:21:54;8.02;;;5.32;;
30327;SDS011;17133;52.418;13.398;2022-10-04T20:27:05;8.73;;;4.93;;
30327;SDS011;17133;52.418;13.398;2022-10-04T20:34:47;18.20;;;10.30;;
30327;SDS011;17133;52.418;13.398;2022-10-04T20:37:13;18.77;;;11.82;;
30327;SDS011;17133;52.418;13.398;2022-10-04T20:42:10;19.42;;;11.70;;
30327;SDS011;17133;52.418;13.398;2022-10-04T20:44:48;16.45;;;9.55;;
30327;SDS011;17133;52.418;13.398;2022-10-04T20:47:26;13.63;;;8.88;;
30327;SDS011;17133;52.418;13.398;2022-10-04T20:49:53;12.88;;;7.25;;
30327;SDS011;17133;52.418;13.398;2022-10-04T20:52:31;10.57;;;6.85;;
30327;SDS011;17133;52.418;13.398;2022-10-04T20:55:00;9.38;;;6.38;;
30327;SDS011;17133;52.418;13.398;2022-10-04T20:57:29;11.23;;;6.45;;
30327;SDS011;17133;52.418;13.398;2022-10-04T20:59:55;12.68;;;6.70;;
30327;SDS011;17133;52.418;13.398;2022-10-04T21:02:23;12.85;;;6.45;;
30327;SDS011;17133;52.418;13.398;2022-10-04T21:04:52;10.18;;;5.75;;
30327;SDS011;17133;52.418;13.398;2022-10-04T21:07:19;9.43;;;6.72;;
30327;SDS011;17133;52.418;13.398;2022-10-04T21:09:45;10.73;;;6.47;;
30327;SDS011;17133;52.418;13.398;2022-10-04T21:17:36;7.75;;;5.55;;
30327;SDS011;17133;52.418;13.398;2022-10-04T21:20:03;8.32;;;5.38;;
30327;SDS011;17133;52.418;13.398;2022-10-04T21:22:30;8.45;;;4.75;;
30327;SDS011;17133;52.418;13.398;2022-10-04T21:24:57;6.60;;;4.68;;
30327;SDS011;17133;52.418;13.398;2022-10-04T21:27:42;10.93;;;5.60;;
30327;SDS011;17133;52.418;13.398;2022-10-04T21:30:14;8.43;;;4.55;;
30327;SDS011;17133;52.418;13.398;2022-10-04T21:32:41;6.72;;;4.72;;
30327;SDS011;17133;52.418;13.398;2022-10-04T21:35:07;8.35;;;4.97;;
30327;SDS011;17133;52.418;13.398;2022-10-04T21:37:33;6.95;;;4.65;;
30327;SDS011;17133;52.418;13.398;2022-10-04T21:40:00;8.63;;;5.13;;
30327;SDS011;17133;52.418;13.398;2022-10-04T21:42:26;9.30;;;5.28;;
30327;SDS011;17133;52.418;13.398;2022-10-04T21:44:51;6.20;;;4.72;;
30327;SDS011;17133;52.418;13.398;2022-10-04T21:47:17;7.03;;;4.60;;
30327;SDS011;17133;52.418;13.398;2022-10-04T21:49:46;5.80;;;4.55;;
30327;SDS011;17133;52.418;13.398;2022-10-04T21:52:12;8.00;;;4.32;;
30327;SDS011;17133;52.418;13.398;2022-10-04T21:54:37;8.02;;;4.47;;
30327;SDS011;17133;52.418;13.398;2022-10-04T21:57:03;7.43;;;4.07;;
30327;SDS011;17133;52.418;13.398;2022-10-04T21:59:29;8.85;;;4.80;;
30327;SDS011;17133;52.418;13.398;2022-10-04T22:01:54;8.63;;;4.38;;
30327;SDS011;17133;52.418;13.398;2022-10-04T22:04:20;7.93;;;3.97;;
30327;SDS011;17133;52.418;13.398;2022-10-04T22:06:46;8.98;;;4.03;;
30327;SDS011;17133;52.418;13.398;2022-10-04T22:09:12;8.38;;;4.57;;
30327;SDS011;17133;52.418;13.398;2022-10-04T22:11:38;8.77;;;4.63;;
30327;SDS011;17133;52.418;13.398;2022-10-04T22:14:04;7.93;;;4.25;;
30327;SDS011;17133;52.418;13.398;2022-10-04T22:16:30;10.43;;;4.93;;
30327;SDS011;17133;52.418;13.398;2022-10-04T22:18:56;7.57;;;4.15;;
30327;SDS011;17133;52.418;13.398;2022-10-04T22:21:22;7.55;;;4.25;;
30327;SDS011;17133;52.418;13.398;2022-10-04T22:23:48;7.18;;;4.35;;
30327;SDS011;17133;52.418;13.398;2022-10-04T22:26:15;7.88;;;4.07;;
30327;SDS011;17133;52.418;13.398;2022-10-04T22:28:48;9.13;;;4.68;;
30327;SDS011;17133;52.418;13.398;2022-10-04T22:31:15;7.50;;;3.80;;
30327;SDS011;17133;52.418;13.398;2022-10-04T22:33:42;5.97;;;4.00;;
30327;SDS011;17133;52.418;13.398;2022-10-04T22:36:13;11.60;;;4.85;;
30327;SDS011;17133;52.418;13.398;2022-10-04T22:38:59;6.18;;;4.50;;
30327;SDS011;17133;52.418;13.398;2022-10-04T22:41:27;6.82;;;4.10;;
30327;SDS011;17133;52.418;13.398;2022-10-04T22:43:55;6.60;;;4.05;;
30327;SDS011;17133;52.418;13.398;2022-10-04T22:46:21;7.60;;;4.75;;
30327;SDS011;17133;52.418;13.398;2022-10-04T22:48:49;11.02;;;4.72;;
30327;SDS011;17133;52.418;13.398;2022-10-04T22:51:15;7.40;;;4.25;;
30327;SDS011;17133;52.418;13.398;2022-10-04T22:53:42;7.47;;;4.53;;
30327;SDS011;17133;52.418;13.398;2022-10-04T22:56:08;6.00;;;3.90;;
30327;SDS011;17133;52.418;13.398;2022-10-04T22:58:36;8.85;;;4.22;;
30327;SDS011;17133;52.418;13.398;2022-10-04T23:01:02;8.60;;;4.63;;
30327;SDS011;17133;52.418;13.398;2022-10-04T23:03:29;7.25;;;4.10;;
30327;SDS011;17133;52.418;13.398;2022-10-04T23:05:59;7.95;;;4.25;;
30327;SDS011;17133;52.418;13.398;2022-10-04T23:08:26;6.88;;;4.10;;
30327;SDS011;17133;52.418;13.398;2022-10-04T23:10:55;7.03;;;4.13;;
30327;SDS011;17133;52.418;13.398;2022-10-04T23:13:22;7.82;;;3.80;;
30327;SDS011;17133;52.418;13.398;2022-10-04T23:15:48;7.28;;;4.30;;
30327;SDS011;17133;52.418;13.398;2022-10-04T23:18:14;6.25;;;4.05;;
30327;SDS011;17133;52.418;13.398;2022-10-04T23:20:41;8.75;;;4.90;;
30327;SDS011;17133;52.418;13.398;2022-10-04T23:23:11;7.68;;;4.47;;
30327;SDS011;17133;52.418;13.398;2022-10-04T23:25:45;7.93;;;3.72;;
30327;SDS011;17133;52.418;13.398;2022-10-04T23:28:11;6.78;;;4.47;;
30327;SDS011;17133;52.418;13.398;2022-10-04T23:30:38;6.72;;;4.65;;
30327;SDS011;17133;52.418;13.398;2022-10-04T23:33:15;8.02;;;4.60;;
30327;SDS011;17133;52.418;13.398;2022-10-04T23:35:42;6.50;;;4.60;;
30327;SDS011;17133;52.418;13.398;2022-10-04T23:38:15;6.80;;;4.20;;
30327;SDS011;17133;52.418;13.398;2022-10-04T23:40:42;6.97;;;4.57;;
30327;SDS011;17133;52.418;13.398;2022-10-04T23:43:22;6.60;;;4.10;;
30327;SDS011;17133;52.418;13.398;2022-10-04T23:45:52;7.85;;;4.55;;
30327;SDS011;17133;52.418;13.398;2022-10-04T23:48:20;6.10;;;4.07;;
30327;SDS011;17133;52.418;13.398;2022-10-04T23:50:47;5.65;;;3.97;;
30327;SDS011;17133;52.418;13.398;2022-10-04T23:53:18;8.40;;;5.18;;
30327;SDS011;17133;52.418;13.398;2022-10-04T23:55:44;9.02;;;4.97;;
